createdAt,value
2022-10-19T00:01:17.003Z,15.97
2022-10-19T00:03:46.679Z,16.43
2022-10-19T00:06:17.072Z,15.47
2022-10-19T00:08:45.729Z,15.87
2022-10-19T00:11:15.281Z,15.80
2022-10-19T00:13:43.448Z,16.17
2022-10-19T00:16:13.971Z,16.93
2022-10-19T00:18:44.890Z,17.00
2022-10-19T00:21:14.771Z,17.00
2022-10-19T00:23:43.119Z,15.10
2022-10-19T00:26:11.506Z,16.80
2022-10-19T00:28:41.578Z,17.10
2022-10-19T00:31:12.865Z,17.00
2022-10-19T00:33:41.382Z,16.10
2022-10-19T00:36:16.967Z,15.67
2022-10-19T00:38:45.164Z,15.53
2022-10-19T00:41:13.674Z,15.47
2022-10-19T00:44:01.950Z,14.03
2022-10-19T00:46:32.246Z,14.50
2022-10-19T00:49:04.068Z,13.43
2022-10-19T00:51:36.740Z,13.13
2022-10-19T00:54:07.559Z,13.33
2022-10-19T00:56:36.864Z,13.23
2022-10-19T00:59:07.839Z,12.97
2022-10-19T01:01:36.249Z,13.27
2022-10-19T01:04:05.717Z,14.50
2022-10-19T01:06:35.081Z,13.40
2022-10-19T01:09:03.305Z,13.93
2022-10-19T01:11:40.780Z,14.03
2022-10-19T01:14:23.817Z,16.20
2022-10-19T01:17:00.995Z,14.33
2022-10-19T01:20:06.975Z,14.80
2022-10-19T01:22:47.652Z,15.03
2022-10-19T01:25:23.680Z,15.07
2022-10-19T01:28:03.188Z,14.43
2022-10-19T01:30:43.965Z,15.40
2022-10-19T01:33:42.157Z,13.93
2022-10-19T01:36:24.343Z,15.10
2022-10-19T01:39:01.293Z,14.30
2022-10-19T01:41:36.804Z,14.70
2022-10-19T01:44:14.932Z,15.60
2022-10-19T01:46:48.284Z,13.77
2022-10-19T01:49:21.219Z,13.80
2022-10-19T01:51:55.044Z,13.60
2022-10-19T01:54:26.207Z,14.70
2022-10-19T01:56:56.134Z,13.80
2022-10-19T01:59:24.800Z,13.60
2022-10-19T02:01:56.703Z,13.40
2022-10-19T02:04:26.024Z,14.23
2022-10-19T02:06:55.891Z,14.80
2022-10-19T02:09:24.317Z,13.80
2022-10-19T02:11:57.624Z,14.23
2022-10-19T02:14:31.319Z,12.80
2022-10-19T02:17:06.123Z,13.70
2022-10-19T02:19:35.531Z,13.87
2022-10-19T02:22:04.038Z,14.33
2022-10-19T02:24:32.201Z,13.70
2022-10-19T02:27:01.872Z,14.40
2022-10-19T02:29:30.101Z,14.80
2022-10-19T02:31:58.276Z,14.47
2022-10-19T02:34:28.392Z,15.20
2022-10-19T02:36:56.865Z,14.40
2022-10-19T02:39:25.078Z,16.33
2022-10-19T02:41:58.503Z,13.73
2022-10-19T02:44:32.316Z,15.77
2022-10-19T02:47:04.657Z,15.93
2022-10-19T02:49:37.714Z,15.77
2022-10-19T02:52:07.809Z,16.17
2022-10-19T02:54:36.919Z,16.23
2022-10-19T02:57:13.006Z,15.63
2022-10-19T02:59:41.099Z,15.60
2022-10-19T03:02:09.251Z,16.77
2022-10-19T03:04:38.921Z,17.00
2022-10-19T03:07:07.089Z,16.33
2022-10-19T03:09:35.245Z,17.03
2022-10-19T03:12:03.431Z,16.30
2022-10-19T03:14:31.542Z,17.33
2022-10-19T03:16:59.759Z,16.90
2022-10-19T03:19:27.899Z,15.73
2022-10-19T03:21:57.441Z,16.03
2022-10-19T03:24:25.712Z,16.60
2022-10-19T03:26:53.876Z,16.63
2022-10-19T03:29:22.017Z,17.93
2022-10-19T03:31:50.235Z,18.50
2022-10-19T03:34:18.428Z,17.07
2022-10-19T03:36:47.051Z,17.10
2022-10-19T03:39:17.656Z,16.90
2022-10-19T03:41:46.481Z,16.50
2022-10-19T03:44:14.907Z,17.37
2022-10-19T03:46:43.059Z,18.43
2022-10-19T03:49:11.613Z,17.30
2022-10-19T03:51:39.794Z,18.20
2022-10-19T03:54:09.893Z,17.70
2022-10-19T03:56:39.540Z,19.50
2022-10-19T03:59:08.138Z,20.13
2022-10-19T04:01:38.395Z,19.20
2022-10-19T04:04:08.680Z,19.30
2022-10-19T04:06:41.284Z,18.60
2022-10-19T04:09:11.102Z,20.67
2022-10-19T04:11:40.971Z,21.27
2022-10-19T04:16:37.952Z,20.20
2022-10-19T04:19:06.336Z,18.87
2022-10-19T04:21:35.963Z,20.73
2022-10-19T04:24:06.904Z,19.73
2022-10-19T04:26:38.930Z,21.00
2022-10-19T04:29:08.634Z,22.80
2022-10-19T04:31:37.171Z,21.83
2022-10-19T04:34:05.751Z,22.40
2022-10-19T04:36:34.357Z,20.97
2022-10-19T04:39:02.620Z,21.17
2022-10-19T04:41:30.773Z,20.87
2022-10-19T04:44:00.348Z,21.07
2022-10-19T04:46:30.671Z,20.87
2022-10-19T04:48:59.660Z,20.83
2022-10-19T04:51:28.371Z,22.27
2022-10-19T04:53:59.608Z,19.80
2022-10-19T04:56:29.160Z,19.90
2022-10-19T04:58:58.401Z,19.33
2022-10-19T05:01:28.006Z,18.83
2022-10-19T05:03:58.936Z,19.97
2022-10-19T05:06:27.424Z,19.03
2022-10-19T05:08:56.038Z,17.60
2022-10-19T05:11:24.426Z,18.60
2022-10-19T05:13:52.898Z,17.37
2022-10-19T05:16:23.111Z,18.70
2022-10-19T05:18:52.132Z,18.07
2022-10-19T05:24:47.209Z,17.03
2022-10-19T05:31:17.595Z,16.20
2022-10-19T05:33:46.284Z,16.50
2022-10-19T05:36:17.150Z,17.33
2022-10-19T05:38:46.036Z,17.80
2022-10-19T05:41:16.257Z,16.50
2022-10-19T05:43:44.951Z,17.33
2022-10-19T05:46:17.481Z,17.10
2022-10-19T05:48:46.408Z,16.30
2022-10-19T05:51:16.367Z,15.47
2022-10-19T05:58:39.836Z,16.60
2022-10-19T06:02:21.320Z,16.67
2022-10-19T06:49:00.725Z,13.67
2022-10-19T06:51:34.256Z,15.50
2022-10-19T06:54:06.310Z,14.63
2022-10-19T06:56:35.207Z,14.93
2022-10-19T06:59:04.877Z,13.93
2022-10-19T07:01:34.032Z,14.33
2022-10-19T07:04:04.208Z,15.30
2022-10-19T07:06:32.897Z,15.03
2022-10-19T07:09:02.739Z,12.63
2022-10-19T07:11:34.931Z,14.07
2022-10-19T07:14:04.068Z,14.90
2022-10-19T07:16:33.079Z,15.33
2022-10-19T07:19:03.539Z,14.40
2022-10-19T07:21:32.287Z,15.30
2022-10-19T07:24:03.443Z,15.50
2022-10-19T07:26:33.761Z,15.40
2022-10-19T07:29:03.122Z,15.13
2022-10-19T07:31:33.773Z,16.57
2022-10-19T07:34:05.686Z,16.10
2022-10-19T07:36:35.470Z,17.17
2022-10-19T07:39:08.726Z,15.80
2022-10-19T07:41:37.466Z,15.97
2022-10-19T07:44:06.968Z,16.20
2022-10-19T07:46:39.879Z,15.50
2022-10-19T07:49:13.269Z,15.50
2022-10-19T07:51:42.155Z,16.27
2022-10-19T07:54:12.658Z,15.87
2022-10-19T07:56:42.102Z,15.30
2022-10-19T07:59:14.556Z,15.70
2022-10-19T08:01:45.738Z,14.50
2022-10-19T08:07:07.451Z,14.50
2022-10-19T08:09:54.546Z,14.10
2022-10-19T08:12:23.815Z,14.53
2022-10-19T08:15:00.062Z,15.00
2022-10-19T08:17:44.488Z,13.70
2022-10-19T08:20:17.424Z,15.07
2022-10-19T08:22:52.036Z,13.40
2022-10-19T08:25:27.779Z,15.50
2022-10-19T08:27:58.474Z,13.83
2022-10-19T08:30:28.524Z,14.60
2022-10-19T08:32:57.257Z,15.23
2022-10-19T08:35:27.460Z,15.40
2022-10-19T08:37:58.533Z,13.97
2022-10-19T08:40:30.623Z,15.17
2022-10-19T08:43:04.992Z,13.90
2022-10-19T08:45:49.032Z,14.93
2022-10-19T08:48:26.988Z,15.07
2022-10-19T08:50:58.842Z,14.63
2022-10-19T08:53:35.536Z,13.80
2022-10-19T08:56:45.904Z,13.73
2022-10-19T08:59:20.515Z,14.50
2022-10-19T09:01:57.517Z,13.53
2022-10-19T09:04:31.224Z,13.70
2022-10-19T09:07:22.836Z,12.70
2022-10-19T09:09:56.965Z,13.00
2022-10-19T09:12:36.514Z,13.27
2022-10-19T09:15:08.751Z,12.47
2022-10-19T09:17:37.137Z,12.60
2022-10-19T09:20:16.970Z,12.10
2022-10-19T09:22:47.874Z,13.40
2022-10-19T09:25:20.684Z,11.80
2022-10-19T09:27:53.994Z,12.40
2022-10-19T09:30:25.685Z,12.17
2022-10-19T09:33:01.186Z,10.87
2022-10-19T09:35:33.173Z,10.73
2022-10-19T09:38:07.344Z,11.30
2022-10-19T09:45:47.713Z,11.23
2022-10-19T09:48:38.889Z,11.50
2022-10-19T09:51:23.352Z,11.93
2022-10-19T09:53:59.789Z,11.63
2022-10-19T09:56:30.778Z,12.30
2022-10-19T09:59:34.274Z,11.97
2022-10-19T10:02:20.645Z,12.80
2022-10-19T10:09:02.331Z,10.90
2022-10-19T10:15:29.731Z,12.00
2022-10-19T10:18:07.528Z,11.10
2022-10-19T10:20:36.488Z,11.43
2022-10-19T10:23:38.023Z,11.17
2022-10-19T10:26:16.251Z,10.33
2022-10-19T10:28:49.069Z,11.23
2022-10-19T10:31:22.981Z,10.70
2022-10-19T10:33:56.834Z,10.93
2022-10-19T10:36:32.580Z,8.77
2022-10-19T10:39:29.282Z,9.53
2022-10-19T10:42:19.864Z,10.30
2022-10-19T10:45:41.946Z,9.50
2022-10-19T10:49:05.048Z,9.33
2022-10-19T10:52:44.783Z,9.90
2022-10-19T10:55:28.945Z,8.73
2022-10-19T10:58:51.700Z,9.40
2022-10-19T12:05:50.173Z,8.57
2022-10-19T12:39:31.427Z,8.27
2022-10-19T12:42:10.642Z,6.70
2022-10-19T12:45:01.879Z,6.37
2022-10-19T12:47:30.188Z,7.17
2022-10-19T12:49:58.720Z,7.70
2022-10-19T12:52:45.803Z,7.20
2022-10-19T12:55:27.249Z,7.63
2022-10-19T12:58:02.264Z,6.37
2022-10-19T13:00:32.331Z,6.67
2022-10-19T13:03:04.683Z,6.80
2022-10-19T13:05:33.919Z,7.53
2022-10-19T13:08:05.328Z,6.97
2022-10-19T13:10:36.746Z,6.83
2022-10-19T13:13:05.603Z,6.67
2022-10-19T13:15:58.374Z,6.70
2022-10-19T13:19:07.284Z,6.93
2022-10-19T13:22:00.370Z,6.50
2022-10-19T13:24:32.316Z,6.77
2022-10-19T13:27:29.244Z,6.90
2022-10-19T13:29:57.790Z,7.10
2022-10-19T13:32:43.099Z,7.80
2022-10-19T13:35:38.357Z,7.30
2022-10-19T13:38:30.170Z,7.47
2022-10-19T13:41:06.595Z,6.97
2022-10-19T13:43:40.651Z,6.80
2022-10-19T13:46:15.087Z,6.63
2022-10-19T13:49:04.814Z,8.27
2022-10-19T13:51:39.032Z,7.03
2022-10-19T13:54:21.926Z,7.67
2022-10-19T13:57:15.692Z,7.40
2022-10-19T14:00:15.114Z,7.90
2022-10-19T14:03:06.600Z,7.50
2022-10-19T14:05:55.471Z,7.63
2022-10-19T14:08:52.344Z,7.80
2022-10-19T14:11:25.518Z,7.00
2022-10-19T14:14:15.037Z,6.50
2022-10-19T14:16:51.151Z,6.33
2022-10-19T14:19:31.794Z,6.10
2022-10-19T14:22:01.943Z,6.20
2022-10-19T14:24:32.944Z,5.93
2022-10-19T14:27:03.209Z,5.13
2022-10-19T14:29:34.539Z,6.27
2022-10-19T14:32:05.209Z,5.80
2022-10-19T14:34:33.373Z,5.50
2022-10-19T14:37:01.699Z,6.03
2022-10-19T14:39:32.518Z,6.20
2022-10-19T14:42:05.639Z,5.90
2022-10-19T14:44:40.245Z,5.73
2022-10-19T14:47:18.425Z,5.70
2022-10-19T14:49:46.795Z,5.90
2022-10-19T14:52:24.410Z,5.63
2022-10-19T14:54:56.722Z,6.07
2022-10-19T14:57:30.133Z,6.20
2022-10-19T15:00:02.202Z,5.73
2022-10-19T15:02:36.106Z,5.40
2022-10-19T15:05:06.807Z,6.10
2022-10-19T15:07:40.655Z,5.67
2022-10-19T15:10:18.667Z,6.47
2022-10-19T15:12:47.339Z,5.90
2022-10-19T15:15:19.924Z,6.40
2022-10-19T15:17:57.358Z,6.93
2022-10-19T15:20:29.176Z,6.17
2022-10-19T15:22:58.728Z,6.20
2022-10-19T15:25:36.778Z,5.90
2022-10-19T15:28:21.955Z,5.13
2022-10-19T15:31:00.628Z,6.10
2022-10-19T15:33:30.213Z,5.70
2022-10-19T15:36:08.720Z,6.17
2022-10-19T15:38:37.345Z,5.40
2022-10-19T15:41:06.204Z,6.87
2022-10-19T15:43:47.659Z,6.93
2022-10-19T15:46:28.335Z,7.40
2022-10-19T15:48:59.259Z,7.37
2022-10-19T15:51:39.348Z,8.27
2022-10-19T15:54:08.789Z,8.43
2022-10-19T15:56:39.881Z,8.57
2022-10-19T15:59:14.346Z,9.73
2022-10-19T16:01:43.712Z,8.00
2022-10-19T16:04:13.506Z,8.20
2022-10-19T16:06:44.076Z,8.20
2022-10-19T16:09:19.267Z,7.00
2022-10-19T16:11:47.655Z,7.20
2022-10-19T16:16:45.152Z,7.37
2022-10-19T16:19:14.675Z,7.47
2022-10-19T16:21:46.676Z,7.03
2022-10-19T16:24:17.571Z,7.90
2022-10-19T16:26:45.753Z,7.53
2022-10-19T16:29:14.041Z,7.77
2022-10-19T16:31:42.276Z,6.90
2022-10-19T16:34:10.418Z,8.17
2022-10-19T16:36:39.928Z,8.00
2022-10-19T16:39:08.062Z,8.13
2022-10-19T16:44:12.824Z,7.40
2022-10-19T16:46:41.012Z,9.13
2022-10-19T16:49:09.275Z,8.80
2022-10-19T16:51:39.775Z,9.93
2022-10-19T16:54:09.720Z,9.37
2022-10-19T16:56:44.726Z,9.73
2022-10-19T16:59:14.979Z,10.30
2022-10-19T17:01:44.850Z,11.23
2022-10-19T17:04:13.382Z,11.17
2022-10-19T17:06:43.083Z,10.70
2022-10-19T17:11:59.427Z,11.33
2022-10-19T17:14:27.637Z,11.30
2022-10-19T17:16:55.857Z,12.17
2022-10-19T17:19:24.019Z,12.17
2022-10-19T17:21:56.483Z,11.00
2022-10-19T17:24:24.607Z,11.67
2022-10-19T17:26:56.731Z,12.40
2022-10-19T17:29:24.985Z,12.10
2022-10-19T17:31:53.163Z,12.23
2022-10-19T17:34:21.261Z,11.97
2022-10-19T17:36:49.821Z,12.10
2022-10-19T17:39:25.549Z,13.37
2022-10-19T17:42:01.493Z,12.83
2022-10-19T17:44:31.358Z,12.90
2022-10-19T17:47:00.660Z,12.83
2022-10-19T17:49:29.842Z,12.13
2022-10-19T17:51:58.240Z,12.30
2022-10-19T17:54:27.889Z,12.90
2022-10-19T17:56:56.094Z,13.57
2022-10-19T17:59:34.609Z,11.90
2022-10-19T18:02:03.742Z,12.17
2022-10-19T18:04:31.966Z,11.90
2022-10-19T18:07:00.225Z,12.00
2022-10-19T18:09:29.760Z,11.30
2022-10-19T18:11:58.042Z,11.67
2022-10-19T18:14:26.477Z,11.90
2022-10-19T18:16:54.683Z,12.30
2022-10-19T18:19:22.783Z,12.63
2022-10-19T18:21:51.057Z,11.80
2022-10-19T18:24:20.276Z,12.47
2022-10-19T18:26:50.777Z,12.23
2022-10-19T18:29:20.983Z,12.30
2022-10-19T18:31:51.644Z,12.37
2022-10-19T18:34:22.166Z,12.47
2022-10-19T18:36:50.732Z,12.50
